Caldwell Industrial

Airport
ICAO code: 
KEUL
Summary
ICAO Region: 
NAM
Territory: 
Location: 
Caldwell, Canyon County, Idaho,
Elevation: 
2432 ft
Coordinates: 
Aerial View: 
43° 38' 27.905" N, 116° 38' 6.337" W
Airport CFIT: 
Altimeter Temperature Error Correction
Metar
Observation
KEUL 021456Z AUTO 26003KT M1/4SM FZFG OVC002 M01/M01 A3023 RMK AO2 SLP254 T10111011 53006 FZRANO RVRNO
Station
Caldwell, Caldwell Industrial Airport
Date/Time
2021-12-02 14:56:00
Wind direction
260°
Wind speed
03 kts
Lowest cloud amount
overcast
Temperature
-1.1°C
Dew point
-1.1°C
Humidity
100%
Weather condition
freezing fog

Description

Caldwell Industrial Airport is a city-owned public-use airport located 5 km southeast of the central business district of Caldwell, a city in Canyon County, Idaho, United States.

Climatology

Cold Semi-arid climate (Köppen climate classification BSk). - Hot, sometimes extremely hot summers and cold, sometimes very cold winters. Some snowfall during the winter. Areas featuring cold semi-arid climates are sometimes subject to major temperature swings during a 24 hour period.

Runways

Designator Length Width Surface Rops
12/30 1676 30 ASP No/No
Airport map: 
Aerial View: 

SKYbrary Partners:

Safety knowledge contributed by: